sensor_id;sensor_type;location;lat;lon;timestamp;P1;durP1;ratioP1;P2;durP2;ratioP2
14169;SDS011;63889;50.596;8.690;2023-01-28T00:01:05;4.55;;;2.65;;
14169;SDS011;63889;50.596;8.690;2023-01-28T00:03:32;4.88;;;2.10;;
14169;SDS011;63889;50.596;8.690;2023-01-28T00:06:01;4.43;;;2.53;;
14169;SDS011;63889;50.596;8.690;2023-01-28T00:08:31;5.28;;;2.30;;
14169;SDS011;63889;50.596;8.690;2023-01-28T00:10:58;5.03;;;2.10;;
14169;SDS011;63889;50.596;8.690;2023-01-28T00:13:25;6.07;;;2.38;;
14169;SDS011;63889;50.596;8.690;2023-01-28T00:15:57;6.20;;;2.33;;
14169;SDS011;63889;50.596;8.690;2023-01-28T00:18:24;6.00;;;1.83;;
14169;SDS011;63889;50.596;8.690;2023-01-28T00:20:57;2.97;;;2.05;;
14169;SDS011;63889;50.596;8.690;2023-01-28T00:23:25;5.20;;;2.40;;
14169;SDS011;63889;50.596;8.690;2023-01-28T00:25:52;7.05;;;2.20;;
14169;SDS011;63889;50.596;8.690;2023-01-28T00:28:18;4.03;;;1.75;;
14169;SDS011;63889;50.596;8.690;2023-01-28T00:30:45;3.67;;;1.90;;
14169;SDS011;63889;50.596;8.690;2023-01-28T00:33:10;5.22;;;2.13;;
14169;SDS011;63889;50.596;8.690;2023-01-28T00:35:36;4.35;;;2.25;;
14169;SDS011;63889;50.596;8.690;2023-01-28T00:38:01;3.17;;;1.90;;
14169;SDS011;63889;50.596;8.690;2023-01-28T00:40:28;3.95;;;2.40;;
14169;SDS011;63889;50.596;8.690;2023-01-28T00:42:54;3.30;;;2.13;;
14169;SDS011;63889;50.596;8.690;2023-01-28T00:45:20;5.38;;;2.03;;
14169;SDS011;63889;50.596;8.690;2023-01-28T00:47:46;5.65;;;2.25;;
14169;SDS011;63889;50.596;8.690;2023-01-28T00:50:12;3.65;;;2.20;;
14169;SDS011;63889;50.596;8.690;2023-01-28T00:52:38;4.10;;;2.03;;
14169;SDS011;63889;50.596;8.690;2023-01-28T00:55:04;3.70;;;2.00;;
14169;SDS011;63889;50.596;8.690;2023-01-28T00:57:30;4.53;;;2.03;;
14169;SDS011;63889;50.596;8.690;2023-01-28T00:59:56;3.38;;;1.90;;
14169;SDS011;63889;50.596;8.690;2023-01-28T01:02:21;4.82;;;1.92;;
14169;SDS011;63889;50.596;8.690;2023-01-28T01:04:47;6.18;;;1.70;;
14169;SDS011;63889;50.596;8.690;2023-01-28T01:07:26;3.95;;;1.90;;
14169;SDS011;63889;50.596;8.690;2023-01-28T01:10:06;3.20;;;2.05;;
14169;SDS011;63889;50.596;8.690;2023-01-28T01:12:35;5.93;;;2.33;;
14169;SDS011;63889;50.596;8.690;2023-01-28T01:15:02;7.63;;;1.80;;
14169;SDS011;63889;50.596;8.690;2023-01-28T01:17:30;6.13;;;2.30;;
14169;SDS011;63889;50.596;8.690;2023-01-28T01:19:56;3.65;;;1.80;;
14169;SDS011;63889;50.596;8.690;2023-01-28T01:22:21;5.97;;;2.30;;
14169;SDS011;63889;50.596;8.690;2023-01-28T01:24:47;6.25;;;2.40;;
14169;SDS011;63889;50.596;8.690;2023-01-28T01:27:13;5.13;;;2.10;;
14169;SDS011;63889;50.596;8.690;2023-01-28T01:29:38;4.70;;;2.10;;
14169;SDS011;63889;50.596;8.690;2023-01-28T01:32:04;3.50;;;2.28;;
14169;SDS011;63889;50.596;8.690;2023-01-28T01:34:29;4.32;;;2.03;;
14169;SDS011;63889;50.596;8.690;2023-01-28T01:36:55;3.15;;;1.63;;
14169;SDS011;63889;50.596;8.690;2023-01-28T01:39:20;3.55;;;1.90;;
14169;SDS011;63889;50.596;8.690;2023-01-28T01:41:46;3.83;;;1.95;;
14169;SDS011;63889;50.596;8.690;2023-01-28T01:47:23;3.50;;;1.50;;
14169;SDS011;63889;50.596;8.690;2023-01-28T01:49:54;4.28;;;1.90;;
14169;SDS011;63889;50.596;8.690;2023-01-28T01:52:23;2.53;;;1.70;;
14169;SDS011;63889;50.596;8.690;2023-01-28T01:54:53;3.72;;;1.77;;
14169;SDS011;63889;50.596;8.690;2023-01-28T01:57:21;3.97;;;1.83;;
14169;SDS011;63889;50.596;8.690;2023-01-28T01:59:51;4.15;;;1.90;;
14169;SDS011;63889;50.596;8.690;2023-01-28T02:02:18;2.33;;;1.70;;
14169;SDS011;63889;50.596;8.690;2023-01-28T02:04:44;5.45;;;2.15;;
14169;SDS011;63889;50.596;8.690;2023-01-28T02:07:10;5.43;;;1.95;;
14169;SDS011;63889;50.596;8.690;2023-01-28T02:09:47;1.80;;;1.50;;
14169;SDS011;63889;50.596;8.690;2023-01-28T02:12:15;4.93;;;2.17;;
14169;SDS011;63889;50.596;8.690;2023-01-28T02:14:45;4.03;;;1.95;;
14169;SDS011;63889;50.596;8.690;2023-01-28T02:17:13;2.42;;;1.45;;
14169;SDS011;63889;50.596;8.690;2023-01-28T02:19:43;4.20;;;1.98;;
14169;SDS011;63889;50.596;8.690;2023-01-28T02:22:34;6.97;;;2.13;;
14169;SDS011;63889;50.596;8.690;2023-01-28T02:25:16;4.05;;;2.17;;
14169;SDS011;63889;50.596;8.690;2023-01-28T02:30:40;5.72;;;2.25;;
14169;SDS011;63889;50.596;8.690;2023-01-28T02:33:13;5.13;;;2.00;;
14169;SDS011;63889;50.596;8.690;2023-01-28T02:35:48;5.28;;;2.78;;
14169;SDS011;63889;50.596;8.690;2023-01-28T02:38:19;4.78;;;2.63;;
14169;SDS011;63889;50.596;8.690;2023-01-28T02:40:53;5.22;;;3.05;;
14169;SDS011;63889;50.596;8.690;2023-01-28T02:46:11;5.28;;;2.83;;
14169;SDS011;63889;50.596;8.690;2023-01-28T02:48:56;6.05;;;3.25;;
14169;SDS011;63889;50.596;8.690;2023-01-28T02:51:29;6.93;;;3.28;;
14169;SDS011;63889;50.596;8.690;2023-01-28T02:54:03;6.68;;;2.80;;
14169;SDS011;63889;50.596;8.690;2023-01-28T02:56:42;5.20;;;2.75;;
14169;SDS011;63889;50.596;8.690;2023-01-28T02:59:16;5.22;;;3.03;;
14169;SDS011;63889;50.596;8.690;2023-01-28T03:04:45;8.93;;;2.88;;
14169;SDS011;63889;50.596;8.690;2023-01-28T03:07:20;3.45;;;2.50;;
14169;SDS011;63889;50.596;8.690;2023-01-28T03:09:47;5.80;;;2.40;;
14169;SDS011;63889;50.596;8.690;2023-01-28T03:12:17;5.28;;;2.38;;
14169;SDS011;63889;50.596;8.690;2023-01-28T03:15:17;9.60;;;2.65;;
14169;SDS011;63889;50.596;8.690;2023-01-28T03:18:06;5.10;;;2.38;;
14169;SDS011;63889;50.596;8.690;2023-01-28T03:21:11;8.60;;;2.47;;
14169;SDS011;63889;50.596;8.690;2023-01-28T03:24:02;4.47;;;2.35;;
14169;SDS011;63889;50.596;8.690;2023-01-28T03:26:55;4.63;;;1.95;;
14169;SDS011;63889;50.596;8.690;2023-01-28T03:30:00;5.78;;;1.90;;
14169;SDS011;63889;50.596;8.690;2023-01-28T03:32:51;4.28;;;1.75;;
14169;SDS011;63889;50.596;8.690;2023-01-28T03:35:37;4.03;;;2.10;;
14169;SDS011;63889;50.596;8.690;2023-01-28T03:38:21;4.68;;;2.40;;
14169;SDS011;63889;50.596;8.690;2023-01-28T03:40:51;2.75;;;1.75;;
14169;SDS011;63889;50.596;8.690;2023-01-28T03:45:44;4.85;;;1.85;;
14169;SDS011;63889;50.596;8.690;2023-01-28T03:48:11;5.28;;;1.92;;
14169;SDS011;63889;50.596;8.690;2023-01-28T03:50:37;4.50;;;2.22;;
14169;SDS011;63889;50.596;8.690;2023-01-28T03:53:03;3.33;;;1.80;;
14169;SDS011;63889;50.596;8.690;2023-01-28T03:55:38;4.63;;;1.95;;
14169;SDS011;63889;50.596;8.690;2023-01-28T03:58:03;4.22;;;2.00;;
14169;SDS011;63889;50.596;8.690;2023-01-28T04:00:32;3.50;;;1.83;;
14169;SDS011;63889;50.596;8.690;2023-01-28T04:03:01;5.25;;;2.17;;
14169;SDS011;63889;50.596;8.690;2023-01-28T04:05:39;3.20;;;1.90;;
14169;SDS011;63889;50.596;8.690;2023-01-28T04:08:09;3.75;;;2.50;;
14169;SDS011;63889;50.596;8.690;2023-01-28T04:10:36;6.10;;;1.90;;
14169;SDS011;63889;50.596;8.690;2023-01-28T04:13:03;3.90;;;1.65;;
14169;SDS011;63889;50.596;8.690;2023-01-28T04:15:28;3.55;;;2.20;;
14169;SDS011;63889;50.596;8.690;2023-01-28T04:17:54;4.80;;;2.72;;
14169;SDS011;63889;50.596;8.690;2023-01-28T04:20:20;3.75;;;2.38;;
14169;SDS011;63889;50.596;8.690;2023-01-28T04:22:46;5.72;;;2.50;;
14169;SDS011;63889;50.596;8.690;2023-01-28T04:25:12;4.03;;;2.22;;
14169;SDS011;63889;50.596;8.690;2023-01-28T04:27:37;6.18;;;2.20;;
14169;SDS011;63889;50.596;8.690;2023-01-28T04:30:03;2.95;;;1.77;;
14169;SDS011;63889;50.596;8.690;2023-01-28T04:32:29;2.85;;;2.00;;
14169;SDS011;63889;50.596;8.690;2023-01-28T04:34:54;3.70;;;2.15;;
14169;SDS011;63889;50.596;8.690;2023-01-28T04:37:20;3.47;;;2.25;;
14169;SDS011;63889;50.596;8.690;2023-01-28T04:39:45;6.07;;;2.05;;
14169;SDS011;63889;50.596;8.690;2023-01-28T04:42:11;8.43;;;1.85;;
14169;SDS011;63889;50.596;8.690;2023-01-28T04:44:36;5.45;;;2.33;;
14169;SDS011;63889;50.596;8.690;2023-01-28T04:47:02;4.97;;;1.90;;
14169;SDS011;63889;50.596;8.690;2023-01-28T04:49:27;3.70;;;1.80;;
14169;SDS011;63889;50.596;8.690;2023-01-28T04:51:53;4.63;;;1.92;;
14169;SDS011;63889;50.596;8.690;2023-01-28T04:54:18;3.70;;;1.77;;
14169;SDS011;63889;50.596;8.690;2023-01-28T04:56:44;5.10;;;2.10;;
14169;SDS011;63889;50.596;8.690;2023-01-28T04:59:09;4.15;;;1.95;;
14169;SDS011;63889;50.596;8.690;2023-01-28T05:01:35;2.83;;;2.10;;
14169;SDS011;63889;50.596;8.690;2023-01-28T05:04:00;2.13;;;1.90;;
14169;SDS011;63889;50.596;8.690;2023-01-28T05:06:29;3.50;;;2.17;;
14169;SDS011;63889;50.596;8.690;2023-01-28T05:09:02;6.60;;;2.40;;
14169;SDS011;63889;50.596;8.690;2023-01-28T05:11:28;4.00;;;2.38;;
14169;SDS011;63889;50.596;8.690;2023-01-28T05:13:53;4.95;;;1.63;;
14169;SDS011;63889;50.596;8.690;2023-01-28T05:16:19;3.55;;;2.10;;
14169;SDS011;63889;50.596;8.690;2023-01-28T05:18:44;4.20;;;1.73;;
14169;SDS011;63889;50.596;8.690;2023-01-28T05:21:12;4.20;;;1.73;;
14169;SDS011;63889;50.596;8.690;2023-01-28T05:23:38;3.17;;;1.75;;
14169;SDS011;63889;50.596;8.690;2023-01-28T05:26:04;2.45;;;1.73;;
14169;SDS011;63889;50.596;8.690;2023-01-28T05:28:29;2.58;;;1.70;;
14169;SDS011;63889;50.596;8.690;2023-01-28T05:30:55;2.35;;;1.50;;
14169;SDS011;63889;50.596;8.690;2023-01-28T05:33:21;3.13;;;1.70;;
14169;SDS011;63889;50.596;8.690;2023-01-28T05:35:46;2.60;;;1.70;;
14169;SDS011;63889;50.596;8.690;2023-01-28T05:38:13;2.88;;;1.75;;
14169;SDS011;63889;50.596;8.690;2023-01-28T05:40:39;6.63;;;1.83;;
14169;SDS011;63889;50.596;8.690;2023-01-28T05:43:04;2.65;;;2.15;;
14169;SDS011;63889;50.596;8.690;2023-01-28T05:45:30;2.17;;;1.40;;
14169;SDS011;63889;50.596;8.690;2023-01-28T05:47:55;3.55;;;1.52;;
14169;SDS011;63889;50.596;8.690;2023-01-28T05:50:21;6.72;;;1.60;;
14169;SDS011;63889;50.596;8.690;2023-01-28T05:52:46;5.47;;;2.05;;
14169;SDS011;63889;50.596;8.690;2023-01-28T05:55:12;2.95;;;1.73;;
14169;SDS011;63889;50.596;8.690;2023-01-28T05:57:37;1.77;;;1.48;;
14169;SDS011;63889;50.596;8.690;2023-01-28T06:00:03;2.25;;;1.52;;
14169;SDS011;63889;50.596;8.690;2023-01-28T06:02:29;2.35;;;1.52;;
14169;SDS011;63889;50.596;8.690;2023-01-28T06:04:55;3.22;;;1.67;;
14169;SDS011;63889;50.596;8.690;2023-01-28T06:07:20;2.30;;;1.50;;
14169;SDS011;63889;50.596;8.690;2023-01-28T06:09:47;3.88;;;2.13;;
14169;SDS011;63889;50.596;8.690;2023-01-28T06:12:13;4.18;;;1.80;;
14169;SDS011;63889;50.596;8.690;2023-01-28T06:14:39;3.08;;;1.73;;
14169;SDS011;63889;50.596;8.690;2023-01-28T06:17:05;2.85;;;1.45;;
14169;SDS011;63889;50.596;8.690;2023-01-28T06:19:31;3.28;;;1.70;;
14169;SDS011;63889;50.596;8.690;2023-01-28T06:21:56;2.85;;;1.55;;
14169;SDS011;63889;50.596;8.690;2023-01-28T06:24:22;2.72;;;1.80;;
14169;SDS011;63889;50.596;8.690;2023-01-28T06:26:48;3.63;;;1.85;;
14169;SDS011;63889;50.596;8.690;2023-01-28T06:29:13;4.00;;;1.80;;
14169;SDS011;63889;50.596;8.690;2023-01-28T06:31:39;4.25;;;1.70;;
14169;SDS011;63889;50.596;8.690;2023-01-28T06:34:05;4.38;;;2.17;;
14169;SDS011;63889;50.596;8.690;2023-01-28T06:36:30;4.30;;;1.98;;
14169;SDS011;63889;50.596;8.690;2023-01-28T06:38:56;3.28;;;1.70;;
14169;SDS011;63889;50.596;8.690;2023-01-28T06:41:22;3.10;;;1.58;;
14169;SDS011;63889;50.596;8.690;2023-01-28T06:43:48;4.55;;;2.10;;
14169;SDS011;63889;50.596;8.690;2023-01-28T06:46:13;4.78;;;1.90;;
14169;SDS011;63889;50.596;8.690;2023-01-28T06:48:39;4.20;;;1.92;;
14169;SDS011;63889;50.596;8.690;2023-01-28T06:51:05;3.85;;;2.55;;
14169;SDS011;63889;50.596;8.690;2023-01-28T06:53:30;2.88;;;1.70;;
14169;SDS011;63889;50.596;8.690;2023-01-28T06:55:56;3.42;;;1.88;;
14169;SDS011;63889;50.596;8.690;2023-01-28T06:58:21;3.30;;;1.75;;
14169;SDS011;63889;50.596;8.690;2023-01-28T07:00:47;2.90;;;1.60;;
14169;SDS011;63889;50.596;8.690;2023-01-28T07:03:12;1.98;;;1.75;;
14169;SDS011;63889;50.596;8.690;2023-01-28T07:05:38;4.68;;;1.80;;
14169;SDS011;63889;50.596;8.690;2023-01-28T07:08:03;3.65;;;2.00;;
14169;SDS011;63889;50.596;8.690;2023-01-28T07:10:29;2.08;;;1.25;;
14169;SDS011;63889;50.596;8.690;2023-01-28T07:12:55;2.90;;;1.83;;
14169;SDS011;63889;50.596;8.690;2023-01-28T07:15:20;5.45;;;2.00;;
14169;SDS011;63889;50.596;8.690;2023-01-28T07:17:46;2.70;;;1.33;;
14169;SDS011;63889;50.596;8.690;2023-01-28T07:20:12;2.88;;;1.50;;
14169;SDS011;63889;50.596;8.690;2023-01-28T07:22:39;4.07;;;1.23;;
14169;SDS011;63889;50.596;8.690;2023-01-28T07:25:06;3.33;;;1.35;;
14169;SDS011;63889;50.596;8.690;2023-01-28T07:27:32;3.28;;;1.50;;
14169;SDS011;63889;50.596;8.690;2023-01-28T07:29:57;3.90;;;1.55;;
14169;SDS011;63889;50.596;8.690;2023-01-28T07:32:23;4.10;;;1.45;;
14169;SDS011;63889;50.596;8.690;2023-01-28T07:34:51;5.45;;;1.13;;
14169;SDS011;63889;50.596;8.690;2023-01-28T07:37:17;1.83;;;1.10;;
14169;SDS011;63889;50.596;8.690;2023-01-28T07:39:43;3.55;;;1.50;;
14169;SDS011;63889;50.596;8.690;2023-01-28T07:42:08;2.42;;;1.38;;
14169;SDS011;63889;50.596;8.690;2023-01-28T07:44:34;2.72;;;1.50;;
14169;SDS011;63889;50.596;8.690;2023-01-28T07:47:00;5.22;;;1.60;;
14169;SDS011;63889;50.596;8.690;2023-01-28T07:49:26;3.10;;;1.10;;
14169;SDS011;63889;50.596;8.690;2023-01-28T07:51:52;6.82;;;1.80;;
14169;SDS011;63889;50.596;8.690;2023-01-28T07:54:18;5.57;;;1.73;;
14169;SDS011;63889;50.596;8.690;2023-01-28T07:56:43;8.43;;;1.55;;
14169;SDS011;63889;50.596;8.690;2023-01-28T07:59:09;2.85;;;1.77;;
14169;SDS011;63889;50.596;8.690;2023-01-28T08:01:34;4.07;;;1.33;;
14169;SDS011;63889;50.596;8.690;2023-01-28T08:04:00;4.93;;;2.08;;
14169;SDS011;63889;50.596;8.690;2023-01-28T08:06:27;2.97;;;1.40;;
14169;SDS011;63889;50.596;8.690;2023-01-28T08:08:53;2.83;;;1.33;;
14169;SDS011;63889;50.596;8.690;2023-01-28T08:11:18;2.85;;;1.10;;
14169;SDS011;63889;50.596;8.690;2023-01-28T08:13:44;1.45;;;0.88;;
14169;SDS011;63889;50.596;8.690;2023-01-28T08:16:10;2.88;;;1.40;;
14169;SDS011;63889;50.596;8.690;2023-01-28T08:18:35;5.07;;;1.63;;
14169;SDS011;63889;50.596;8.690;2023-01-28T08:21:01;2.53;;;1.00;;
14169;SDS011;63889;50.596;8.690;2023-01-28T08:23:29;1.63;;;1.00;;
14169;SDS011;63889;50.596;8.690;2023-01-28T08:25:58;1.42;;;0.90;;
14169;SDS011;63889;50.596;8.690;2023-01-28T08:28:24;1.48;;;1.20;;
14169;SDS011;63889;50.596;8.690;2023-01-28T08:30:49;3.67;;;0.85;;
14169;SDS011;63889;50.596;8.690;2023-01-28T08:33:15;1.52;;;1.00;;
14169;SDS011;63889;50.596;8.690;2023-01-28T08:35:42;1.17;;;1.02;;
14169;SDS011;63889;50.596;8.690;2023-01-28T08:38:07;1.55;;;0.93;;
14169;SDS011;63889;50.596;8.690;2023-01-28T08:40:36;2.50;;;0.93;;
14169;SDS011;63889;50.596;8.690;2023-01-28T08:43:02;3.78;;;0.90;;
14169;SDS011;63889;50.596;8.690;2023-01-28T08:45:28;2.63;;;0.73;;
14169;SDS011;63889;50.596;8.690;2023-01-28T08:47:58;0.88;;;0.70;;
14169;SDS011;63889;50.596;8.690;2023-01-28T08:50:29;0.88;;;0.70;;
14169;SDS011;63889;50.596;8.690;2023-01-28T08:53:04;1.20;;;0.85;;
14169;SDS011;63889;50.596;8.690;2023-01-28T08:55:32;2.10;;;0.70;;
14169;SDS011;63889;50.596;8.690;2023-01-28T08:58:01;2.65;;;0.70;;
14169;SDS011;63889;50.596;8.690;2023-01-28T09:00:27;0.88;;;0.50;;
14169;SDS011;63889;50.596;8.690;2023-01-28T09:02:53;2.80;;;0.80;;
14169;SDS011;63889;50.596;8.690;2023-01-28T09:05:18;0.93;;;0.40;;
14169;SDS011;63889;50.596;8.690;2023-01-28T09:07:45;1.15;;;0.77;;
14169;SDS011;63889;50.596;8.690;2023-01-28T09:10:11;0.93;;;0.57;;
14169;SDS011;63889;50.596;8.690;2023-01-28T09:12:36;2.83;;;0.82;;
14169;SDS011;63889;50.596;8.690;2023-01-28T09:15:02;3.50;;;0.75;;
14169;SDS011;63889;50.596;8.690;2023-01-28T09:17:28;5.72;;;0.70;;
14169;SDS011;63889;50.596;8.690;2023-01-28T09:19:54;2.72;;;1.95;;
14169;SDS011;63889;50.596;8.690;2023-01-28T09:22:19;1.58;;;0.52;;
14169;SDS011;63889;50.596;8.690;2023-01-28T09:24:45;2.85;;;0.65;;
14169;SDS011;63889;50.596;8.690;2023-01-28T09:27:11;1.02;;;0.73;;
14169;SDS011;63889;50.596;8.690;2023-01-28T09:29:36;0.82;;;0.60;;
14169;SDS011;63889;50.596;8.690;2023-01-28T09:32:03;1.05;;;0.70;;
14169;SDS011;63889;50.596;8.690;2023-01-28T09:34:29;1.55;;;0.82;;
14169;SDS011;63889;50.596;8.690;2023-01-28T09:36:54;1.50;;;0.70;;
14169;SDS011;63889;50.596;8.690;2023-01-28T09:39:21;0.60;;;0.60;;
14169;SDS011;63889;50.596;8.690;2023-01-28T09:42:02;1.77;;;0.90;;
14169;SDS011;63889;50.596;8.690;2023-01-28T09:47:25;0.82;;;0.60;;
14169;SDS011;63889;50.596;8.690;2023-01-28T09:50:05;1.13;;;0.90;;
14169;SDS011;63889;50.596;8.690;2023-01-28T09:52:50;1.23;;;1.10;;
14169;SDS011;63889;50.596;8.690;2023-01-28T09:55:30;0.75;;;0.47;;
14169;SDS011;63889;50.596;8.690;2023-01-28T09:57:59;1.77;;;0.77;;
14169;SDS011;63889;50.596;8.690;2023-01-28T10:00:31;1.73;;;1.00;;
14169;SDS011;63889;50.596;8.690;2023-01-28T10:03:17;3.20;;;1.05;;
14169;SDS011;63889;50.596;8.690;2023-01-28T10:08:47;2.10;;;0.90;;
14169;SDS011;63889;50.596;8.690;2023-01-28T10:17:36;1.80;;;1.08;;
14169;SDS011;63889;50.596;8.690;2023-01-28T10:22:51;3.22;;;0.90;;
14169;SDS011;63889;50.596;8.690;2023-01-28T10:25:23;1.98;;;0.85;;
14169;SDS011;63889;50.596;8.690;2023-01-28T10:27:52;2.72;;;1.25;;
14169;SDS011;63889;50.596;8.690;2023-01-28T10:33:19;1.35;;;1.02;;
14169;SDS011;63889;50.596;8.690;2023-01-28T10:35:51;1.95;;;0.98;;
14169;SDS011;63889;50.596;8.690;2023-01-28T10:38:21;1.75;;;0.88;;
14169;SDS011;63889;50.596;8.690;2023-01-28T10:40:49;2.03;;;1.13;;
14169;SDS011;63889;50.596;8.690;2023-01-28T10:43:16;0.68;;;0.60;;
14169;SDS011;63889;50.596;8.690;2023-01-28T10:48:32;2.53;;;1.20;;
14169;SDS011;63889;50.596;8.690;2023-01-28T10:51:02;2.08;;;1.30;;
14169;SDS011;63889;50.596;8.690;2023-01-28T10:53:40;1.17;;;1.00;;
14169;SDS011;63889;50.596;8.690;2023-01-28T11:01:37;2.92;;;1.02;;
14169;SDS011;63889;50.596;8.690;2023-01-28T11:04:04;1.98;;;1.13;;
14169;SDS011;63889;50.596;8.690;2023-01-28T11:06:30;3.47;;;1.33;;
14169;SDS011;63889;50.596;8.690;2023-01-28T11:08:56;0.80;;;0.70;;
14169;SDS011;63889;50.596;8.690;2023-01-28T11:11:25;2.60;;;1.40;;
14169;SDS011;63889;50.596;8.690;2023-01-28T11:13:52;1.23;;;1.02;;
14169;SDS011;63889;50.596;8.690;2023-01-28T11:16:19;2.58;;;0.98;;
14169;SDS011;63889;50.596;8.690;2023-01-28T11:18:50;3.13;;;1.25;;
14169;SDS011;63889;50.596;8.690;2023-01-28T11:21:18;3.20;;;1.30;;
14169;SDS011;63889;50.596;8.690;2023-01-28T11:23:57;2.15;;;1.02;;
14169;SDS011;63889;50.596;8.690;2023-01-28T11:26:26;2.10;;;0.82;;
14169;SDS011;63889;50.596;8.690;2023-01-28T11:28:56;2.33;;;1.30;;
14169;SDS011;63889;50.596;8.690;2023-01-28T11:31:22;1.65;;;0.90;;
14169;SDS011;63889;50.596;8.690;2023-01-28T11:33:51;1.67;;;1.15;;
14169;SDS011;63889;50.596;8.690;2023-01-28T11:36:30;3.25;;;0.80;;
14169;SDS011;63889;50.596;8.690;2023-01-28T11:39:01;1.10;;;0.90;;
14169;SDS011;63889;50.596;8.690;2023-01-28T11:41:35;1.83;;;0.90;;
14169;SDS011;63889;50.596;8.690;2023-01-28T11:44:20;3.67;;;1.15;;
14169;SDS011;63889;50.596;8.690;2023-01-28T11:58:33;3.92;;;1.00;;
14169;SDS011;63889;50.596;8.690;2023-01-28T12:01:23;4.47;;;1.00;;
14169;SDS011;63889;50.596;8.690;2023-01-28T12:13:03;1.58;;;0.93;;
14169;SDS011;63889;50.596;8.690;2023-01-28T12:19:16;1.40;;;1.15;;
14169;SDS011;63889;50.596;8.690;2023-01-28T12:21:57;4.30;;;1.27;;
14169;SDS011;63889;50.596;8.690;2023-01-28T12:24:40;1.67;;;1.10;;
14169;SDS011;63889;50.596;8.690;2023-01-28T12:32:38;2.72;;;1.02;;
14169;SDS011;63889;50.596;8.690;2023-01-28T12:48:42;6.00;;;1.33;;
14169;SDS011;63889;50.596;8.690;2023-01-28T12:51:51;1.63;;;1.00;;
14169;SDS011;63889;50.596;8.690;2023-01-28T12:54:30;0.77;;;0.63;;
14169;SDS011;63889;50.596;8.690;2023-01-28T12:56:58;3.78;;;0.70;;
14169;SDS011;63889;50.596;8.690;2023-01-28T13:02:00;4.50;;;1.10;;
14169;SDS011;63889;50.596;8.690;2023-01-28T13:10:04;3.00;;;0.98;;
14169;SDS011;63889;50.596;8.690;2023-01-28T13:12:39;2.05;;;1.02;;
14169;SDS011;63889;50.596;8.690;2023-01-28T13:15:10;4.10;;;1.00;;
14169;SDS011;63889;50.596;8.690;2023-01-28T13:17:37;1.80;;;1.10;;
14169;SDS011;63889;50.596;8.690;2023-01-28T13:20:12;3.13;;;1.20;;
14169;SDS011;63889;50.596;8.690;2023-01-28T13:22:39;3.80;;;0.85;;
14169;SDS011;63889;50.596;8.690;2023-01-28T13:25:24;2.50;;;1.10;;
14169;SDS011;63889;50.596;8.690;2023-01-28T13:27:56;3.33;;;1.15;;
14169;SDS011;63889;50.596;8.690;2023-01-28T13:30:27;1.55;;;0.85;;
14169;SDS011;63889;50.596;8.690;2023-01-28T13:32:55;2.17;;;0.80;;
14169;SDS011;63889;50.596;8.690;2023-01-28T13:35:29;1.42;;;0.82;;
14169;SDS011;63889;50.596;8.690;2023-01-28T13:37:58;3.33;;;0.88;;
14169;SDS011;63889;50.596;8.690;2023-01-28T13:40:30;1.13;;;1.02;;
14169;SDS011;63889;50.596;8.690;2023-01-28T13:43:00;1.05;;;0.80;;
14169;SDS011;63889;50.596;8.690;2023-01-28T13:45:27;4.13;;;1.08;;
14169;SDS011;63889;50.596;8.690;2023-01-28T13:47:57;3.75;;;1.48;;
14169;SDS011;63889;50.596;8.690;2023-01-28T13:50:40;2.33;;;1.15;;
14169;SDS011;63889;50.596;8.690;2023-01-28T13:55:51;4.13;;;1.27;;
14169;SDS011;63889;50.596;8.690;2023-01-28T14:01:09;1.88;;;1.52;;
14169;SDS011;63889;50.596;8.690;2023-01-28T14:04:04;3.13;;;1.50;;
14169;SDS011;63889;50.596;8.690;2023-01-28T14:14:36;1.92;;;1.63;;
14169;SDS011;63889;50.596;8.690;2023-01-28T14:20:12;3.08;;;1.67;;
14169;SDS011;63889;50.596;8.690;2023-01-28T14:22:42;6.47;;;2.10;;
14169;SDS011;63889;50.596;8.690;2023-01-28T14:25:12;5.15;;;1.95;;
14169;SDS011;63889;50.596;8.690;2023-01-28T14:27:43;4.10;;;1.92;;
14169;SDS011;63889;50.596;8.690;2023-01-28T14:33:06;2.13;;;1.60;;
14169;SDS011;63889;50.596;8.690;2023-01-28T14:35:34;2.28;;;1.83;;
14169;SDS011;63889;50.596;8.690;2023-01-28T14:38:08;3.65;;;1.70;;
14169;SDS011;63889;50.596;8.690;2023-01-28T14:40:39;3.90;;;2.10;;
14169;SDS011;63889;50.596;8.690;2023-01-28T14:43:06;3.15;;;2.10;;
14169;SDS011;63889;50.596;8.690;2023-01-28T14:53:44;3.05;;;2.30;;
14169;SDS011;63889;50.596;8.690;2023-01-28T14:59:17;7.50;;;2.53;;
14169;SDS011;63889;50.596;8.690;2023-01-28T15:01:58;2.67;;;2.00;;
14169;SDS011;63889;50.596;8.690;2023-01-28T15:04:28;5.13;;;2.08;;
14169;SDS011;63889;50.596;8.690;2023-01-28T15:09:25;6.15;;;2.28;;
14169;SDS011;63889;50.596;8.690;2023-01-28T15:11:51;2.63;;;2.22;;
14169;SDS011;63889;50.596;8.690;2023-01-28T15:14:28;4.32;;;2.42;;
14169;SDS011;63889;50.596;8.690;2023-01-28T15:16:55;2.28;;;2.08;;
14169;SDS011;63889;50.596;8.690;2023-01-28T15:19:31;3.72;;;1.85;;
14169;SDS011;63889;50.596;8.690;2023-01-28T15:22:03;4.60;;;2.20;;
14169;SDS011;63889;50.596;8.690;2023-01-28T15:24:31;2.67;;;2.00;;
14169;SDS011;63889;50.596;8.690;2023-01-28T15:26:58;1.58;;;1.25;;
14169;SDS011;63889;50.596;8.690;2023-01-28T15:29:29;3.70;;;1.70;;
14169;SDS011;63889;50.596;8.690;2023-01-28T15:31:54;3.72;;;1.75;;
14169;SDS011;63889;50.596;8.690;2023-01-28T15:34:20;6.53;;;2.60;;
14169;SDS011;63889;50.596;8.690;2023-01-28T15:36:46;3.05;;;2.00;;
14169;SDS011;63889;50.596;8.690;2023-01-28T15:39:17;7.25;;;2.55;;
14169;SDS011;63889;50.596;8.690;2023-01-28T15:42:05;4.07;;;2.25;;
14169;SDS011;63889;50.596;8.690;2023-01-28T15:44:35;3.03;;;2.10;;
14169;SDS011;63889;50.596;8.690;2023-01-28T15:47:13;4.05;;;2.17;;
14169;SDS011;63889;50.596;8.690;2023-01-28T15:49:52;7.57;;;2.10;;
14169;SDS011;63889;50.596;8.690;2023-01-28T15:52:20;2.38;;;1.63;;
14169;SDS011;63889;50.596;8.690;2023-01-28T15:54:53;4.45;;;1.58;;
14169;SDS011;63889;50.596;8.690;2023-01-28T15:57:19;4.05;;;2.08;;
14169;SDS011;63889;50.596;8.690;2023-01-28T15:59:46;11.70;;;2.17;;
14169;SDS011;63889;50.596;8.690;2023-01-28T16:05:03;8.32;;;2.22;;
14169;SDS011;63889;50.596;8.690;2023-01-28T16:07:41;2.67;;;2.08;;
14169;SDS011;63889;50.596;8.690;2023-01-28T16:10:15;2.13;;;1.48;;
14169;SDS011;63889;50.596;8.690;2023-01-28T16:15:47;3.42;;;1.98;;
14169;SDS011;63889;50.596;8.690;2023-01-28T16:20:48;3.13;;;1.70;;
14169;SDS011;63889;50.596;8.690;2023-01-28T16:23:19;2.83;;;2.03;;
14169;SDS011;63889;50.596;8.690;2023-01-28T16:25:56;4.75;;;2.17;;
14169;SDS011;63889;50.596;8.690;2023-01-28T16:28:23;6.78;;;2.30;;
14169;SDS011;63889;50.596;8.690;2023-01-28T16:30:49;4.15;;;2.33;;
14169;SDS011;63889;50.596;8.690;2023-01-28T16:33:18;2.35;;;2.00;;
14169;SDS011;63889;50.596;8.690;2023-01-28T16:35:45;7.03;;;2.67;;
14169;SDS011;63889;50.596;8.690;2023-01-28T16:38:11;5.55;;;2.58;;
14169;SDS011;63889;50.596;8.690;2023-01-28T16:40:41;5.18;;;3.03;;
14169;SDS011;63889;50.596;8.690;2023-01-28T16:43:08;6.78;;;2.45;;
14169;SDS011;63889;50.596;8.690;2023-01-28T16:45:38;5.65;;;2.30;;
14169;SDS011;63889;50.596;8.690;2023-01-28T16:48:05;4.78;;;2.05;;
14169;SDS011;63889;50.596;8.690;2023-01-28T16:50:31;2.40;;;2.20;;
14169;SDS011;63889;50.596;8.690;2023-01-28T16:52:57;3.70;;;2.25;;
14169;SDS011;63889;50.596;8.690;2023-01-28T16:55:24;4.85;;;1.88;;
14169;SDS011;63889;50.596;8.690;2023-01-28T16:57:51;3.80;;;2.20;;
14169;SDS011;63889;50.596;8.690;2023-01-28T17:00:20;4.05;;;2.85;;
14169;SDS011;63889;50.596;8.690;2023-01-28T17:02:51;2.72;;;2.05;;
14169;SDS011;63889;50.596;8.690;2023-01-28T17:05:18;3.30;;;2.30;;
14169;SDS011;63889;50.596;8.690;2023-01-28T17:07:45;3.53;;;2.33;;
14169;SDS011;63889;50.596;8.690;2023-01-28T17:10:17;5.38;;;2.42;;
14169;SDS011;63889;50.596;8.690;2023-01-28T17:12:44;2.25;;;1.75;;
14169;SDS011;63889;50.596;8.690;2023-01-28T17:15:11;2.30;;;1.60;;